Airfield :
LOGIN :

Register | Disclaimer

   EN    FR    IT 

 










Legend :    VFR   Marginal VFR   IFR   Intensive IFR   Very Intensive IFR
Visi :
Ceiling :
>= 8 km
>= 3000ft
5 to 8 km
1000 to 3000 ft
1500m to 5 km
500 to 1000 ft
800 to 1500m
200 to 500 ft
< 800m
< 200 ft
Symbols :   Thunderstorms  Fog  Heavy snow  Heavy precipitations  Wind > 20 kt
SIGMETs :     Misc.  Thunderstorms  Icing  Turbulence  Mountain Waves  Volcanic Ashes






- Airport Elevation : 681 ft
- IATA code : OSL


ENGM - Oslo Gardermoen

CURRENT METAR :
  • 070950Z 20017KT 9999 VCSH SCT019 BKN024 13/10 Q1001 TEMPO 20018G28KT

EXPIRED METARs :
  • 070920Z 20017KT 9999 VCSH SCT019 BKN024 13/10 Q1001 TEMPO 20018G28KT
  • 070850Z 20018G29KT 9999 -SHRA FEW014 BKN016 13/11 Q1002 NOSIG
  • 070820Z 21017KT 9999 VCSH BKN015 12/11 Q1002 TEMPO 2001G28KT
  • 070750Z 20014KT 9999 -SHRA BKN011 12/11 Q1002 TEMPO 19015G25KT

TAF AMD TAF ENGM
Valid from the 07 at 06:00 until the 08 at 06:00 UTC


0706/0806 19015KT 9000 -RADZ SCT008 BKN020
TEMPO 0706/0714 4000 RADZ BR BKN008
TEMPO 0707/0717 22018G28KT
TEMPO 0714/0720 SHRA BKN020 SCT030CB



MET'MAP, your aeronautical weather chart ! - Copyright ORBIFLY December 2007 - Disclaimer

ORBIFLY MET'MAP TEAM :

Programming & Development : Alexandra Zaïnal
Original concept : Baudouin d'Aumeries
Technical & hardware support : Manuel Goepfert
Assistance : Marc-Olivier Méhu




SOURCES & CREDITS :

   NOAA